createdAt,value
2018-10-07T00:01:02.757Z,74.64
2018-10-07T00:04:06.155Z,74.23
2018-10-07T00:07:09.803Z,74.43
2018-10-07T00:10:13.304Z,74.39
2018-10-07T00:13:16.785Z,74.12
2018-10-07T00:16:20.413Z,75.13
2018-10-07T00:19:23.951Z,75.46
2018-10-07T00:22:27.383Z,75.51
2018-10-07T00:25:30.772Z,74.60
2018-10-07T00:28:34.193Z,74.13
2018-10-07T00:31:42.970Z,75.32
2018-10-07T00:34:47.472Z,75.50
2018-10-07T00:37:50.784Z,75.19
2018-10-07T00:40:54.273Z,74.76
2018-10-07T00:43:57.815Z,75.71
2018-10-07T00:47:01.314Z,75.88
2018-10-07T00:50:04.825Z,76.55
2018-10-07T00:53:08.231Z,75.85
2018-10-07T00:56:11.746Z,75.47
2018-10-07T00:59:15.148Z,76.28
2018-10-07T01:02:18.557Z,76.86
2018-10-07T01:05:21.956Z,76.73
2018-10-07T01:08:25.447Z,77.17
2018-10-07T01:11:28.878Z,77.13
2018-10-07T01:14:32.219Z,77.20
2018-10-07T01:17:35.664Z,77.13
2018-10-07T01:20:39.098Z,76.61
2018-10-07T01:23:42.533Z,77.33
2018-10-07T01:26:46.048Z,76.88
2018-10-07T01:29:49.437Z,77.09
2018-10-07T01:32:54.773Z,77.37
2018-10-07T01:35:58.502Z,77.51
2018-10-07T01:39:01.905Z,77.59
2018-10-07T01:42:05.328Z,77.69
2018-10-07T01:45:08.723Z,78.67
2018-10-07T01:48:12.090Z,78.79
2018-10-07T01:51:15.503Z,79.24
2018-10-07T01:54:18.890Z,78.78
2018-10-07T01:57:22.298Z,78.76
2018-10-07T02:00:25.693Z,79.03
2018-10-07T02:03:29.093Z,79.43
2018-10-07T02:06:32.492Z,79.32
2018-10-07T02:09:35.894Z,79.51
2018-10-07T02:12:39.326Z,79.40
2018-10-07T02:15:42.701Z,79.67
2018-10-07T02:18:46.092Z,78.87
2018-10-07T02:21:49.561Z,79.46
2018-10-07T02:24:52.897Z,78.50
2018-10-07T02:27:56.313Z,79.52
2018-10-07T02:30:59.847Z,79.16
2018-10-07T02:34:03.411Z,79.29
2018-10-07T02:37:06.937Z,79.78
2018-10-07T02:40:10.413Z,79.09
2018-10-07T02:43:13.957Z,79.87
2018-10-07T02:46:17.440Z,80.23
2018-10-07T02:49:20.956Z,80.30
2018-10-07T02:52:29.713Z,79.83
2018-10-07T02:55:33.274Z,80.04
2018-10-07T02:58:36.768Z,79.75
2018-10-07T03:01:40.352Z,80.71
2018-10-07T03:04:43.909Z,80.38
2018-10-07T03:07:49.020Z,80.09
2018-10-07T03:10:52.511Z,79.58
2018-10-07T03:13:56.001Z,80.88
2018-10-07T03:16:59.520Z,80.17
2018-10-07T03:20:03.045Z,81.36
2018-10-07T03:23:06.582Z,81.16
2018-10-07T03:26:10.027Z,81.54
2018-10-07T03:29:13.555Z,81.19
2018-10-07T03:32:17.155Z,81.64
2018-10-07T03:35:20.691Z,81.91
2018-10-07T03:38:24.152Z,81.65
2018-10-07T03:41:27.650Z,81.90
2018-10-07T03:44:31.135Z,81.48
2018-10-07T03:47:34.729Z,81.44
2018-10-07T03:50:38.251Z,82.11
2018-10-07T03:53:41.740Z,82.53
2018-10-07T03:56:45.242Z,82.30
2018-10-07T03:59:48.817Z,81.43
2018-10-07T04:02:52.357Z,82.56
2018-10-07T04:05:55.884Z,81.63
2018-10-07T04:08:59.359Z,83.18
2018-10-07T04:12:02.958Z,82.84
2018-10-07T04:15:06.496Z,82.95
2018-10-07T04:18:10.003Z,82.13
2018-10-07T04:21:13.468Z,81.29
2018-10-07T04:24:16.963Z,82.48
2018-10-07T04:27:20.487Z,82.70
2018-10-07T04:30:23.982Z,82.15
2018-10-07T04:33:27.473Z,82.11
2018-10-07T04:36:31.873Z,81.77
2018-10-07T04:39:35.286Z,81.76
2018-10-07T04:42:38.725Z,82.28
2018-10-07T04:45:42.195Z,81.63
2018-10-07T04:48:45.593Z,82.32
2018-10-07T04:51:48.995Z,82.07
2018-10-07T04:54:52.394Z,81.04
2018-10-07T04:57:55.887Z,82.64
2018-10-07T05:00:59.426Z,82.88
2018-10-07T05:04:02.991Z,82.23
2018-10-07T05:07:06.714Z,82.16
2018-10-07T05:10:21.678Z,82.06
2018-10-07T05:14:01.570Z,83.05
2018-10-07T05:17:05.110Z,82.84
2018-10-07T05:20:08.577Z,82.77
2018-10-07T05:23:12.067Z,82.67
2018-10-07T05:26:15.559Z,82.84
2018-10-07T05:29:19.098Z,81.75
2018-10-07T05:32:22.551Z,82.49
2018-10-07T05:35:25.946Z,82.36
2018-10-07T05:38:29.393Z,82.26
2018-10-07T05:41:32.901Z,82.93
2018-10-07T05:44:36.486Z,83.60
2018-10-07T05:47:39.890Z,83.79
2018-10-07T05:50:43.400Z,83.54
2018-10-07T05:53:46.892Z,83.79
2018-10-07T05:56:50.410Z,83.87
2018-10-07T05:59:53.979Z,84.20
2018-10-07T06:03:07.854Z,84.80
2018-10-07T06:06:11.403Z,83.75
2018-10-07T06:09:18.979Z,83.68
2018-10-07T06:12:22.483Z,83.79
2018-10-07T06:15:29.549Z,83.88
2018-10-07T06:18:33.133Z,83.37
2018-10-07T06:21:36.705Z,83.28
2018-10-07T06:24:40.253Z,82.84
2018-10-07T06:27:44.603Z,82.51
2018-10-07T06:30:48.108Z,82.46
2018-10-07T06:33:51.603Z,81.96
2018-10-07T06:36:56.143Z,82.60
2018-10-07T06:39:59.606Z,82.76
2018-10-07T06:43:03.101Z,82.67
2018-10-07T06:46:06.710Z,82.28
2018-10-07T06:49:10.184Z,81.38
2018-10-07T06:52:13.603Z,81.20
2018-10-07T06:55:16.999Z,80.87
2018-10-07T06:58:20.423Z,80.78
2018-10-07T07:01:23.888Z,80.47
2018-10-07T07:04:28.320Z,80.21
2018-10-07T07:07:31.902Z,79.24
2018-10-07T07:10:35.302Z,78.79
2018-10-07T07:13:38.788Z,78.76
2018-10-07T07:16:42.417Z,78.86
2018-10-07T07:19:45.906Z,78.13
2018-10-07T07:22:49.338Z,77.46
2018-10-07T07:25:52.716Z,77.23
2018-10-07T07:28:56.165Z,76.89
2018-10-07T07:31:59.653Z,75.90
2018-10-07T07:35:03.034Z,75.20
2018-10-07T07:38:06.583Z,75.15
2018-10-07T07:41:10.081Z,75.34
2018-10-07T07:44:13.513Z,74.79
2018-10-07T07:47:17.061Z,74.70
2018-10-07T07:50:20.466Z,74.44
2018-10-07T07:53:23.847Z,73.90
2018-10-07T07:56:27.233Z,72.94
2018-10-07T07:59:30.958Z,72.37
2018-10-07T08:02:34.339Z,73.31
2018-10-07T08:05:37.822Z,73.11
2018-10-07T08:08:41.314Z,73.82
2018-10-07T08:11:44.734Z,74.30
2018-10-07T08:14:48.237Z,74.34
2018-10-07T08:17:51.689Z,73.72
2018-10-07T08:20:55.070Z,73.26
2018-10-07T08:23:58.595Z,72.72
2018-10-07T08:27:02.249Z,72.60
2018-10-07T08:30:05.866Z,72.70
2018-10-07T08:33:09.278Z,72.41
2018-10-07T08:36:12.675Z,72.80
2018-10-07T08:39:16.158Z,72.70
2018-10-07T08:42:19.674Z,72.14
2018-10-07T08:45:23.201Z,72.47
2018-10-07T08:48:27.695Z,72.95
2018-10-07T08:51:31.194Z,72.44
2018-10-07T08:54:34.692Z,72.38
2018-10-07T08:57:38.223Z,72.08
2018-10-07T09:00:41.884Z,71.46
2018-10-07T09:03:45.555Z,71.58
2018-10-07T09:06:48.997Z,70.94
2018-10-07T09:09:53.531Z,70.77
2018-10-07T09:12:57.084Z,70.80
2018-10-07T09:16:00.561Z,70.29
2018-10-07T09:19:04.307Z,69.63
2018-10-07T09:22:07.817Z,69.62
2018-10-07T09:25:11.627Z,69.62
2018-10-07T09:28:15.142Z,69.14
2018-10-07T09:31:18.653Z,69.23
2018-10-07T09:34:22.135Z,69.15
2018-10-07T09:37:25.589Z,68.53
2018-10-07T09:40:29.075Z,68.37
2018-10-07T09:43:32.634Z,68.07
2018-10-07T09:46:36.243Z,67.41
2018-10-07T09:49:39.998Z,67.25
2018-10-07T09:52:43.597Z,67.63
2018-10-07T09:55:47.140Z,66.31
2018-10-07T09:58:50.691Z,64.61
2018-10-07T10:01:54.221Z,63.34
2018-10-07T10:04:57.885Z,64.19
2018-10-07T10:08:01.558Z,63.92
2018-10-07T10:11:05.186Z,63.25
2018-10-07T10:14:08.799Z,62.98
2018-10-07T10:17:13.580Z,62.96
2018-10-07T10:20:21.050Z,62.90
2018-10-07T10:24:02.606Z,62.51
2018-10-07T10:27:20.941Z,62.30
2018-10-07T10:30:31.361Z,62.21
2018-10-07T10:33:37.109Z,61.89
2018-10-07T10:37:14.776Z,62.10
2018-10-07T10:40:25.592Z,62.07
2018-10-07T10:43:31.818Z,61.75
2018-10-07T10:46:42.629Z,61.46
2018-10-07T10:49:58.326Z,61.53
2018-10-07T10:53:09.369Z,61.40
2018-10-07T10:56:19.787Z,61.27
2018-10-07T10:59:44.485Z,60.95
2018-10-07T11:03:18.071Z,60.98
2018-10-07T11:06:31.739Z,60.74
2018-10-07T11:10:15.315Z,61.28
2018-10-07T11:13:26.271Z,61.45
2018-10-07T11:16:41.164Z,61.35
2018-10-07T11:19:53.170Z,60.98
2018-10-07T11:23:05.305Z,60.43
2018-10-07T11:27:01.176Z,60.23
2018-10-07T11:30:21.418Z,60.15
2018-10-07T11:33:40.641Z,59.95
2018-10-07T11:36:51.335Z,59.63
2018-10-07T11:41:03.443Z,59.86
2018-10-07T11:44:13.602Z,59.46
2018-10-07T11:47:24.616Z,59.06
2018-10-07T11:51:04.947Z,58.28
2018-10-07T11:54:10.770Z,57.99
2018-10-07T11:57:14.351Z,57.90
2018-10-07T12:00:17.917Z,57.85
2018-10-07T12:03:22.288Z,57.84
2018-10-07T12:06:25.770Z,57.39
2018-10-07T12:09:29.418Z,57.49
2018-10-07T12:12:33.003Z,57.39
2018-10-07T12:15:36.369Z,56.80
2018-10-07T12:18:39.771Z,56.83
2018-10-07T12:21:43.209Z,56.71
2018-10-07T12:27:49.534Z,56.35
2018-10-07T12:30:52.992Z,55.78
2018-10-07T12:33:56.380Z,55.85
2018-10-07T12:36:59.771Z,55.67
2018-10-07T12:40:03.272Z,55.98
2018-10-07T12:43:06.811Z,55.49
2018-10-07T12:46:10.168Z,55.79
2018-10-07T12:49:13.657Z,55.93
2018-10-07T12:52:17.099Z,55.50
2018-10-07T12:55:20.765Z,55.25
2018-10-07T12:58:24.306Z,55.29
2018-10-07T13:01:28.852Z,55.16
2018-10-07T13:04:32.211Z,55.28
2018-10-07T13:07:35.617Z,54.72
2018-10-07T13:10:39.003Z,54.64
2018-10-07T13:13:42.417Z,54.33
2018-10-07T13:16:45.804Z,54.21
2018-10-07T13:19:49.231Z,54.12
2018-10-07T13:22:52.728Z,53.80
2018-10-07T13:25:56.111Z,54.14
2018-10-07T13:28:59.649Z,53.99
2018-10-07T13:32:03.025Z,54.29
2018-10-07T13:35:06.482Z,53.62
2018-10-07T13:38:09.917Z,53.71
2018-10-07T13:41:13.314Z,53.52
2018-10-07T13:44:16.917Z,53.21
2018-10-07T13:47:20.324Z,52.26
2018-10-07T13:50:23.735Z,52.40
2018-10-07T13:53:27.225Z,52.89
2018-10-07T13:56:30.619Z,52.59
2018-10-07T13:59:34.023Z,52.69
2018-10-07T14:02:37.636Z,51.94
2018-10-07T14:05:41.138Z,51.99
2018-10-07T14:08:44.654Z,51.44
2018-10-07T14:11:48.195Z,51.76
2018-10-07T14:14:51.708Z,52.12
2018-10-07T14:17:55.252Z,51.67
2018-10-07T14:20:58.768Z,51.66
2018-10-07T14:24:02.358Z,51.94
2018-10-07T14:27:05.925Z,51.88
2018-10-07T14:30:09.467Z,52.42
2018-10-07T14:33:12.976Z,52.59
2018-10-07T14:36:16.483Z,53.12
2018-10-07T14:39:20.252Z,53.60
2018-10-07T14:42:23.695Z,53.82
2018-10-07T14:45:27.253Z,53.89
2018-10-07T14:48:30.803Z,54.04
2018-10-07T14:51:34.280Z,54.23
2018-10-07T14:54:37.789Z,54.63
2018-10-07T14:57:41.290Z,54.85
2018-10-07T15:00:44.847Z,55.26
2018-10-07T15:03:48.370Z,55.13
2018-10-07T15:06:51.923Z,54.56
2018-10-07T15:09:55.407Z,54.97
2018-10-07T15:12:58.979Z,55.07
2018-10-07T15:16:02.561Z,55.31
2018-10-07T15:19:06.035Z,55.87
2018-10-07T15:22:09.522Z,55.56
2018-10-07T15:25:13.013Z,55.78
2018-10-07T15:28:16.530Z,56.02
2018-10-07T15:31:20.008Z,56.32
2018-10-07T15:34:23.600Z,56.59
2018-10-07T15:37:27.225Z,56.89
2018-10-07T15:40:30.879Z,56.97
2018-10-07T15:43:34.327Z,57.27
2018-10-07T15:46:37.861Z,57.60
2018-10-07T15:49:41.355Z,57.56
2018-10-07T15:52:44.935Z,57.86
2018-10-07T15:55:48.576Z,58.09
2018-10-07T15:58:52.181Z,58.48
2018-10-07T16:01:55.691Z,58.80
2018-10-07T16:04:59.256Z,59.19
2018-10-07T16:08:02.891Z,59.43
2018-10-07T16:11:06.905Z,59.50
2018-10-07T16:14:10.469Z,59.67
2018-10-07T16:17:13.869Z,59.41
2018-10-07T16:20:17.313Z,59.83
2018-10-07T16:23:21.255Z,60.00
2018-10-07T16:26:24.878Z,59.95
2018-10-07T16:29:28.399Z,60.39
2018-10-07T16:32:31.934Z,61.07
2018-10-07T16:35:35.468Z,60.98
2018-10-07T16:38:39.015Z,61.65
2018-10-07T16:41:42.540Z,62.12
2018-10-07T16:44:47.797Z,62.27
2018-10-07T16:47:51.264Z,62.52
2018-10-07T16:50:54.654Z,63.09
2018-10-07T16:53:58.055Z,63.42
2018-10-07T16:57:01.615Z,63.34
2018-10-07T17:00:05.492Z,63.74
2018-10-07T17:03:08.977Z,63.76
2018-10-07T17:06:12.364Z,64.08
2018-10-07T17:09:15.909Z,64.17
2018-10-07T17:12:19.416Z,64.51
2018-10-07T17:15:23.041Z,64.72
2018-10-07T17:18:26.455Z,65.10
2018-10-07T17:21:30.202Z,65.33
2018-10-07T17:24:33.979Z,65.50
2018-10-07T17:27:37.405Z,65.82
2018-10-07T17:30:40.810Z,66.08
2018-10-07T17:33:44.326Z,66.13
2018-10-07T17:36:47.803Z,66.34
2018-10-07T17:39:51.348Z,66.78
2018-10-07T17:42:54.868Z,67.05
2018-10-07T17:45:58.299Z,67.20
2018-10-07T17:49:01.938Z,67.52
2018-10-07T17:52:05.139Z,68.35
2018-10-07T17:55:08.523Z,68.62
2018-10-07T17:58:11.900Z,69.03
2018-10-07T18:01:15.447Z,69.26
2018-10-07T18:04:18.820Z,69.52
2018-10-07T18:07:22.276Z,69.75
2018-10-07T18:10:25.844Z,69.72
2018-10-07T18:13:29.329Z,70.13
2018-10-07T18:16:32.848Z,70.02
2018-10-07T18:19:36.299Z,70.06
2018-10-07T18:22:39.707Z,69.94
2018-10-07T18:25:43.117Z,70.24
2018-10-07T18:28:46.528Z,70.00
2018-10-07T18:31:49.924Z,70.21
2018-10-07T18:34:53.437Z,70.27
2018-10-07T18:37:56.815Z,70.35
2018-10-07T18:41:00.375Z,70.37
2018-10-07T18:44:03.787Z,70.67
2018-10-07T18:47:07.334Z,70.60
2018-10-07T18:50:10.730Z,70.96
2018-10-07T18:53:14.125Z,71.33
2018-10-07T18:56:17.605Z,71.42
2018-10-07T18:59:21.029Z,71.87
2018-10-07T19:02:24.616Z,71.77
2018-10-07T19:05:28.011Z,71.69
2018-10-07T19:08:31.711Z,72.34
2018-10-07T19:11:35.058Z,72.26
2018-10-07T19:14:38.593Z,72.57
2018-10-07T19:17:42.043Z,72.97
2018-10-07T19:20:45.604Z,73.25
2018-10-07T19:23:49.046Z,73.25
2018-10-07T19:26:52.564Z,73.30
2018-10-07T19:29:56.150Z,73.24
2018-10-07T19:32:59.658Z,73.39
2018-10-07T19:36:03.424Z,73.13
2018-10-07T19:39:09.050Z,73.42
2018-10-07T19:42:12.530Z,73.13
2018-10-07T19:45:16.132Z,73.29
2018-10-07T19:48:19.632Z,72.98
2018-10-07T19:51:24.046Z,73.18
2018-10-07T19:54:27.545Z,72.84
2018-10-07T19:57:31.179Z,73.06
2018-10-07T20:00:34.825Z,73.29
2018-10-07T20:03:38.243Z,73.04
2018-10-07T20:06:41.778Z,73.21
2018-10-07T20:09:45.267Z,73.33
2018-10-07T20:12:48.768Z,73.48
2018-10-07T20:15:52.280Z,73.29
2018-10-07T20:18:55.831Z,73.29
2018-10-07T20:21:59.292Z,73.09
2018-10-07T20:25:02.824Z,73.53
2018-10-07T20:28:06.307Z,73.62
2018-10-07T20:31:09.796Z,73.49
2018-10-07T20:34:13.277Z,73.84
2018-10-07T20:37:16.770Z,73.69
2018-10-07T20:40:20.393Z,73.87
2018-10-07T20:43:23.785Z,74.15
2018-10-07T20:46:27.324Z,73.48
2018-10-07T20:49:30.815Z,73.45
2018-10-07T20:52:34.368Z,73.28
2018-10-07T20:55:37.791Z,73.38
2018-10-07T20:58:41.293Z,73.14
2018-10-07T21:01:44.703Z,73.37
2018-10-07T21:04:48.199Z,73.52
2018-10-07T21:07:51.706Z,74.09
2018-10-07T21:10:55.199Z,74.32
2018-10-07T21:13:58.769Z,74.61
2018-10-07T21:17:02.260Z,74.45
2018-10-07T21:20:05.749Z,74.42
2018-10-07T21:23:09.209Z,74.75
2018-10-07T21:26:12.642Z,74.29
2018-10-07T21:29:16.140Z,74.21
2018-10-07T21:32:19.611Z,73.97
2018-10-07T21:35:23.115Z,74.27
2018-10-07T21:38:26.520Z,74.37
2018-10-07T21:41:30.025Z,74.29
2018-10-07T21:44:33.418Z,74.35
2018-10-07T21:47:36.901Z,74.99
2018-10-07T21:50:40.308Z,74.77
2018-10-07T21:53:43.739Z,75.76
2018-10-07T21:56:47.246Z,76.21
2018-10-07T21:59:50.715Z,76.21
2018-10-07T22:02:54.231Z,76.19
2018-10-07T22:05:57.730Z,76.32
2018-10-07T22:09:01.138Z,75.64
2018-10-07T22:12:04.540Z,75.93
2018-10-07T22:15:08.003Z,76.04
2018-10-07T22:18:11.432Z,75.53
2018-10-07T22:21:14.835Z,75.75
2018-10-07T22:24:18.249Z,76.52
2018-10-07T22:27:21.660Z,77.31
2018-10-07T22:30:25.249Z,77.06
2018-10-07T22:33:28.708Z,77.45
2018-10-07T22:36:32.110Z,77.60
2018-10-07T22:39:35.634Z,77.64
2018-10-07T22:42:39.041Z,78.01
2018-10-07T22:45:42.425Z,78.24
2018-10-07T22:48:45.965Z,78.49
2018-10-07T22:51:53.656Z,78.00
2018-10-07T22:54:57.053Z,77.90
2018-10-07T22:58:00.439Z,77.67
2018-10-07T23:01:03.860Z,77.55
2018-10-07T23:04:07.258Z,77.73
2018-10-07T23:07:10.743Z,78.12
2018-10-07T23:10:14.457Z,78.09
2018-10-07T23:13:17.857Z,78.70
2018-10-07T23:16:21.245Z,78.98
2018-10-07T23:19:24.644Z,78.28
2018-10-07T23:22:28.066Z,78.38
2018-10-07T23:25:31.477Z,79.02
2018-10-07T23:28:34.854Z,79.17
2018-10-07T23:31:38.323Z,78.83
2018-10-07T23:34:41.785Z,78.76
2018-10-07T23:37:45.246Z,79.16
2018-10-07T23:40:50.590Z,79.45
2018-10-07T23:43:54.006Z,79.24
2018-10-07T23:46:57.400Z,79.33
2018-10-07T23:50:01.854Z,79.54
2018-10-07T23:53:05.402Z,79.86
2018-10-07T23:56:08.824Z,79.71
2018-10-07T23:59:12.499Z,79.74
